sensor_id;sensor_type;location;lat;lon;timestamp;pressure;altitude;pressure_sealevel;temperature;humidity
32733;BME280;11867;51.198;11.966;2023-11-19T00:00:43;100309.31;;;5.55;100.00
32733;BME280;11867;51.198;11.966;2023-11-19T00:06:14;100296.41;;;5.23;100.00
32733;BME280;11867;51.198;11.966;2023-11-19T00:11:38;100273.81;;;5.30;100.00
32733;BME280;11867;51.198;11.966;2023-11-19T00:17:03;100279.25;;;5.52;100.00
32733;BME280;11867;51.198;11.966;2023-11-19T00:22:26;100265.72;;;5.52;100.00
32733;BME280;11867;51.198;11.966;2023-11-19T00:27:49;100247.84;;;5.90;100.00
32733;BME280;11867;51.198;11.966;2023-11-19T00:33:16;100232.19;;;6.14;100.00
32733;BME280;11867;51.198;11.966;2023-11-19T00:38:39;100227.50;;;6.04;100.00
32733;BME280;11867;51.198;11.966;2023-11-19T00:44:03;100199.16;;;6.39;100.00
32733;BME280;11867;51.198;11.966;2023-11-19T00:49:27;100186.47;;;6.44;100.00
32733;BME280;11867;51.198;11.966;2023-11-19T00:54:50;100181.75;;;6.99;99.67
32733;BME280;11867;51.198;11.966;2023-11-19T01:00:14;100173.34;;;6.63;100.00
32733;BME280;11867;51.198;11.966;2023-11-19T01:05:43;100159.78;;;6.63;100.00
32733;BME280;11867;51.198;11.966;2023-11-19T01:11:08;100127.31;;;7.06;99.29
32733;BME280;11867;51.198;11.966;2023-11-19T01:16:31;100108.31;;;7.01;99.47
32733;BME280;11867;51.198;11.966;2023-11-19T01:21:56;100089.78;;;7.45;97.26
32733;BME280;11867;51.198;11.966;2023-11-19T01:27:19;100086.94;;;7.15;99.19
32733;BME280;11867;51.198;11.966;2023-11-19T01:32:43;100079.81;;;6.98;100.00
32733;BME280;11867;51.198;11.966;2023-11-19T01:38:07;100087.06;;;7.45;98.83
32733;BME280;11867;51.198;11.966;2023-11-19T01:43:31;100065.25;;;7.10;100.00
32733;BME280;11867;51.198;11.966;2023-11-19T01:48:59;100058.78;;;7.21;100.00
32733;BME280;11867;51.198;11.966;2023-11-19T01:54:24;100040.34;;;7.23;100.00
32733;BME280;11867;51.198;11.966;2023-11-19T01:59:47;100039.13;;;6.88;100.00
32733;BME280;11867;51.198;11.966;2023-11-19T02:05:11;100022.59;;;6.84;100.00
32733;BME280;11867;51.198;11.966;2023-11-19T02:10:37;100004.34;;;6.70;100.00
32733;BME280;11867;51.198;11.966;2023-11-19T02:16:00;99963.38;;;6.61;100.00
32733;BME280;11867;51.198;11.966;2023-11-19T02:21:24;99978.44;;;6.94;100.00
32733;BME280;11867;51.198;11.966;2023-11-19T02:26:57;99962.72;;;6.91;100.00
32733;BME280;11867;51.198;11.966;2023-11-19T02:32:23;99952.44;;;6.98;100.00
32733;BME280;11867;51.198;11.966;2023-11-19T02:37:47;99919.69;;;7.20;100.00
32733;BME280;11867;51.198;11.966;2023-11-19T02:43:10;99924.56;;;7.18;100.00
32733;BME280;11867;51.198;11.966;2023-11-19T02:48:39;99890.09;;;7.08;100.00
32733;BME280;11867;51.198;11.966;2023-11-19T02:54:02;99890.91;;;7.04;100.00
32733;BME280;11867;51.198;11.966;2023-11-19T02:59:27;99877.69;;;7.43;100.00
32733;BME280;11867;51.198;11.966;2023-11-19T03:05:01;99897.47;;;7.75;100.00
32733;BME280;11867;51.198;11.966;2023-11-19T03:10:26;99885.00;;;7.53;100.00
32733;BME280;11867;51.198;11.966;2023-11-19T03:15:50;99881.72;;;7.66;100.00
32733;BME280;11867;51.198;11.966;2023-11-19T03:21:14;99870.63;;;7.68;100.00
32733;BME280;11867;51.198;11.966;2023-11-19T03:26:37;99865.66;;;8.11;100.00
32733;BME280;11867;51.198;11.966;2023-11-19T03:32:01;99884.69;;;7.96;100.00
32733;BME280;11867;51.198;11.966;2023-11-19T03:37:25;99882.78;;;8.01;100.00
32733;BME280;11867;51.198;11.966;2023-11-19T03:42:48;99884.59;;;8.42;100.00
32733;BME280;11867;51.198;11.966;2023-11-19T03:48:11;99879.56;;;7.68;100.00
32733;BME280;11867;51.198;11.966;2023-11-19T03:53:36;99840.47;;;7.75;100.00
32733;BME280;11867;51.198;11.966;2023-11-19T03:58:59;99834.16;;;8.00;100.00
32733;BME280;11867;51.198;11.966;2023-11-19T04:04:22;99849.28;;;8.32;100.00
32733;BME280;11867;51.198;11.966;2023-11-19T04:09:49;99847.38;;;8.32;100.00
32733;BME280;11867;51.198;11.966;2023-11-19T04:15:14;99822.03;;;7.66;100.00
32733;BME280;11867;51.198;11.966;2023-11-19T04:20:37;99813.94;;;8.37;100.00
32733;BME280;11867;51.198;11.966;2023-11-19T04:26:04;99798.25;;;8.23;100.00
32733;BME280;11867;51.198;11.966;2023-11-19T04:31:31;99773.44;;;7.80;100.00
32733;BME280;11867;51.198;11.966;2023-11-19T04:36:54;99780.50;;;7.81;100.00
32733;BME280;11867;51.198;11.966;2023-11-19T04:42:19;99788.97;;;8.40;100.00
32733;BME280;11867;51.198;11.966;2023-11-19T04:47:42;99779.34;;;8.63;100.00
32733;BME280;11867;51.198;11.966;2023-11-19T04:53:06;99766.75;;;8.27;100.00
32733;BME280;11867;51.198;11.966;2023-11-19T04:58:30;99739.59;;;8.22;100.00
32733;BME280;11867;51.198;11.966;2023-11-19T05:03:54;99745.06;;;8.12;100.00
32733;BME280;11867;51.198;11.966;2023-11-19T05:09:19;99749.84;;;8.46;100.00
32733;BME280;11867;51.198;11.966;2023-11-19T05:14:43;99720.53;;;8.33;100.00
32733;BME280;11867;51.198;11.966;2023-11-19T05:20:11;99723.28;;;8.27;100.00
32733;BME280;11867;51.198;11.966;2023-11-19T05:25:38;99719.78;;;8.27;100.00
32733;BME280;11867;51.198;11.966;2023-11-19T05:31:05;99721.22;;;8.04;100.00
32733;BME280;11867;51.198;11.966;2023-11-19T05:36:29;99719.78;;;8.22;100.00
32733;BME280;11867;51.198;11.966;2023-11-19T05:41:52;99710.66;;;8.52;100.00
32733;BME280;11867;51.198;11.966;2023-11-19T05:47:16;99708.47;;;8.88;100.00
32733;BME280;11867;51.198;11.966;2023-11-19T05:52:39;99679.63;;;8.93;100.00
32733;BME280;11867;51.198;11.966;2023-11-19T05:58:03;99713.19;;;8.78;100.00
32733;BME280;11867;51.198;11.966;2023-11-19T06:03:29;99720.13;;;8.94;100.00
32733;BME280;11867;51.198;11.966;2023-11-19T06:08:53;99705.09;;;8.73;100.00
32733;BME280;11867;51.198;11.966;2023-11-19T06:14:16;99690.66;;;8.72;100.00
32733;BME280;11867;51.198;11.966;2023-11-19T06:19:41;99685.56;;;8.65;100.00
32733;BME280;11867;51.198;11.966;2023-11-19T06:25:04;99693.00;;;9.18;100.00
32733;BME280;11867;51.198;11.966;2023-11-19T06:30:29;99696.16;;;9.25;100.00
32733;BME280;11867;51.198;11.966;2023-11-19T06:35:56;99701.16;;;9.42;100.00
32733;BME280;11867;51.198;11.966;2023-11-19T06:41:19;99712.59;;;9.15;100.00
32733;BME280;11867;51.198;11.966;2023-11-19T06:46:42;99700.91;;;9.15;100.00
32733;BME280;11867;51.198;11.966;2023-11-19T06:52:07;99703.97;;;9.08;100.00
32733;BME280;11867;51.198;11.966;2023-11-19T06:57:30;99705.69;;;8.64;100.00
32733;BME280;11867;51.198;11.966;2023-11-19T07:02:54;99701.91;;;8.60;100.00
32733;BME280;11867;51.198;11.966;2023-11-19T07:08:21;99709.91;;;8.81;100.00
32733;BME280;11867;51.198;11.966;2023-11-19T07:13:45;99714.59;;;8.70;100.00
32733;BME280;11867;51.198;11.966;2023-11-19T07:19:08;99716.44;;;8.80;100.00
32733;BME280;11867;51.198;11.966;2023-11-19T07:24:33;99730.31;;;8.78;100.00
32733;BME280;11867;51.198;11.966;2023-11-19T07:29:56;99722.31;;;8.92;100.00
32733;BME280;11867;51.198;11.966;2023-11-19T07:35:19;99722.38;;;9.45;100.00
32733;BME280;11867;51.198;11.966;2023-11-19T07:40:44;99738.72;;;10.37;100.00
32733;BME280;11867;51.198;11.966;2023-11-19T07:46:11;99742.75;;;9.19;100.00
32733;BME280;11867;51.198;11.966;2023-11-19T07:51:34;99747.56;;;9.80;100.00
32733;BME280;11867;51.198;11.966;2023-11-19T07:57:02;99741.00;;;10.48;100.00
32733;BME280;11867;51.198;11.966;2023-11-19T08:02:25;99745.00;;;9.89;100.00
32733;BME280;11867;51.198;11.966;2023-11-19T08:07:49;99759.84;;;10.02;100.00
32733;BME280;11867;51.198;11.966;2023-11-19T08:13:14;99769.44;;;10.42;100.00
32733;BME280;11867;51.198;11.966;2023-11-19T08:18:38;99770.38;;;10.70;100.00
32733;BME280;11867;51.198;11.966;2023-11-19T08:24:04;99757.22;;;11.43;100.00
32733;BME280;11867;51.198;11.966;2023-11-19T08:29:29;99755.78;;;10.80;100.00
32733;BME280;11867;51.198;11.966;2023-11-19T08:34:52;99767.13;;;10.68;100.00
32733;BME280;11867;51.198;11.966;2023-11-19T08:40:15;99765.44;;;10.92;100.00
32733;BME280;11867;51.198;11.966;2023-11-19T08:45:40;99763.19;;;11.73;100.00
32733;BME280;11867;51.198;11.966;2023-11-19T08:51:04;99754.53;;;11.99;99.39
32733;BME280;11867;51.198;11.966;2023-11-19T08:56:27;99739.28;;;12.48;96.73
32733;BME280;11867;51.198;11.966;2023-11-19T09:01:58;99750.09;;;12.53;96.15
32733;BME280;11867;51.198;11.966;2023-11-19T09:07:22;99767.81;;;12.92;93.58
32733;BME280;11867;51.198;11.966;2023-11-19T09:12:45;99765.44;;;12.40;95.97
32733;BME280;11867;51.198;11.966;2023-11-19T09:18:10;99771.13;;;12.02;99.41
32733;BME280;11867;51.198;11.966;2023-11-19T09:23:33;99762.03;;;11.93;99.32
32733;BME280;11867;51.198;11.966;2023-11-19T09:29:03;99765.38;;;12.04;98.82
32733;BME280;11867;51.198;11.966;2023-11-19T09:34:27;99755.25;;;12.55;97.99
32733;BME280;11867;51.198;11.966;2023-11-19T09:39:51;99761.91;;;12.62;96.91
32733;BME280;11867;51.198;11.966;2023-11-19T09:45:16;99765.00;;;12.47;97.76
32733;BME280;11867;51.198;11.966;2023-11-19T09:50:41;99757.16;;;12.04;100.00
32733;BME280;11867;51.198;11.966;2023-11-19T09:56:05;99760.50;;;12.01;100.00
32733;BME280;11867;51.198;11.966;2023-11-19T10:01:29;99751.69;;;12.18;99.45
32733;BME280;11867;51.198;11.966;2023-11-19T10:06:55;99761.88;;;12.40;98.05
32733;BME280;11867;51.198;11.966;2023-11-19T10:12:18;99771.50;;;12.23;99.84
32733;BME280;11867;51.198;11.966;2023-11-19T10:17:41;99751.47;;;12.28;98.88
32733;BME280;11867;51.198;11.966;2023-11-19T10:23:06;99746.63;;;12.61;97.12
32733;BME280;11867;51.198;11.966;2023-11-19T10:28:33;99756.44;;;12.62;95.86
32733;BME280;11867;51.198;11.966;2023-11-19T10:34:01;99749.91;;;12.49;96.48
32733;BME280;11867;51.198;11.966;2023-11-19T10:45:22;99771.28;;;12.84;92.94
32733;BME280;11867;51.198;11.966;2023-11-19T10:50:49;99761.41;;;12.97;90.16
32733;BME280;11867;51.198;11.966;2023-11-19T10:56:18;99745.72;;;13.34;88.50
32733;BME280;11867;51.198;11.966;2023-11-19T11:01:45;99749.00;;;13.84;86.78
32733;BME280;11867;51.198;11.966;2023-11-19T11:07:09;99741.44;;;14.65;82.59
32733;BME280;11867;51.198;11.966;2023-11-19T11:12:36;99743.50;;;15.20;77.18
32733;BME280;11867;51.198;11.966;2023-11-19T11:18:00;99764.38;;;16.37;71.06
32733;BME280;11867;51.198;11.966;2023-11-19T11:23:48;99734.13;;;17.33;71.00
32733;BME280;11867;51.198;11.966;2023-11-19T11:29:22;99739.53;;;18.93;65.50
32733;BME280;11867;51.198;11.966;2023-11-19T11:34:57;99745.66;;;19.59;63.21
32733;BME280;11867;51.198;11.966;2023-11-19T11:40:22;99743.47;;;20.31;61.71
32733;BME280;11867;51.198;11.966;2023-11-19T11:45:49;99738.25;;;21.43;57.77
32733;BME280;11867;51.198;11.966;2023-11-19T11:51:12;99741.81;;;21.01;58.54
32733;BME280;11867;51.198;11.966;2023-11-19T11:56:36;99733.78;;;21.58;54.63
32733;BME280;11867;51.198;11.966;2023-11-19T12:02:03;99719.91;;;22.95;51.40
32733;BME280;11867;51.198;11.966;2023-11-19T12:07:29;72474.13;;;-146.03;100.00
32733;BME280;11867;51.198;11.966;2023-11-19T12:12:53;72474.13;;;-146.03;100.00
32733;BME280;11867;51.198;11.966;2023-11-19T12:18:23;72474.13;;;-146.03;100.00
32733;BME280;11867;51.198;11.966;2023-11-19T12:23:46;72474.13;;;-146.03;100.00
32733;BME280;11867;51.198;11.966;2023-11-19T12:29:12;72474.13;;;-146.03;100.00
32733;BME280;11867;51.198;11.966;2023-11-19T12:34:37;72474.13;;;-146.03;100.00
32733;BME280;11867;51.198;11.966;2023-11-19T12:40:00;72474.13;;;-146.03;100.00
32733;BME280;11867;51.198;11.966;2023-11-19T12:45:34;72474.13;;;-146.03;100.00
32733;BME280;11867;51.198;11.966;2023-11-19T12:51:00;72474.13;;;-146.03;100.00
32733;BME280;11867;51.198;11.966;2023-11-19T12:56:24;72474.13;;;-146.03;100.00
32733;BME280;11867;51.198;11.966;2023-11-19T13:01:54;72474.13;;;-146.03;100.00
32733;BME280;11867;51.198;11.966;2023-11-19T13:07:22;72474.13;;;-146.03;100.00
32733;BME280;11867;51.198;11.966;2023-11-19T13:12:59;72474.13;;;-146.03;100.00
32733;BME280;11867;51.198;11.966;2023-11-19T13:18:23;72474.13;;;-146.03;100.00
32733;BME280;11867;51.198;11.966;2023-11-19T13:24:06;72474.13;;;-146.03;100.00
32733;BME280;11867;51.198;11.966;2023-11-19T13:29:30;72474.13;;;-146.03;100.00
32733;BME280;11867;51.198;11.966;2023-11-19T13:34:55;99719.91;;;22.95;51.40
32733;BME280;11867;51.198;11.966;2023-11-19T13:40:19;99741.63;;;15.59;69.18
32733;BME280;11867;51.198;11.966;2023-11-19T13:45:44;99733.38;;;14.95;73.01
32733;BME280;11867;51.198;11.966;2023-11-19T13:51:08;99728.88;;;14.64;74.49
32733;BME280;11867;51.198;11.966;2023-11-19T13:56:33;99721.88;;;14.31;75.63
32733;BME280;11867;51.198;11.966;2023-11-19T14:01:56;99716.44;;;14.75;74.99
32733;BME280;11867;51.198;11.966;2023-11-19T14:07:19;99712.25;;;14.86;74.22
32733;BME280;11867;51.198;11.966;2023-11-19T14:12:43;99707.72;;;14.64;74.41
32733;BME280;11867;51.198;11.966;2023-11-19T14:18:06;99715.31;;;14.76;73.65
32733;BME280;11867;51.198;11.966;2023-11-19T14:23:30;99731.44;;;14.69;74.26
32733;BME280;11867;51.198;11.966;2023-11-19T14:28:54;99720.91;;;14.36;75.71
32733;BME280;11867;51.198;11.966;2023-11-19T14:34:17;99721.22;;;14.17;76.39
32733;BME280;11867;51.198;11.966;2023-11-19T14:39:41;99714.47;;;14.41;75.60
32733;BME280;11867;51.198;11.966;2023-11-19T14:45:12;99712.00;;;14.13;76.69
32733;BME280;11867;51.198;11.966;2023-11-19T14:50:35;99713.28;;;14.07;76.41
32733;BME280;11867;51.198;11.966;2023-11-19T14:55:58;99701.41;;;13.63;76.70
32733;BME280;11867;51.198;11.966;2023-11-19T15:01:23;99697.97;;;13.26;77.66
32733;BME280;11867;51.198;11.966;2023-11-19T15:06:46;99711.19;;;13.24;77.12
32733;BME280;11867;51.198;11.966;2023-11-19T15:12:09;99716.06;;;13.04;77.73
32733;BME280;11867;51.198;11.966;2023-11-19T15:17:34;99722.41;;;12.91;77.98
32733;BME280;11867;51.198;11.966;2023-11-19T15:22:57;99725.28;;;12.86;77.98
32733;BME280;11867;51.198;11.966;2023-11-19T15:28:21;99728.91;;;13.04;77.84
32733;BME280;11867;51.198;11.966;2023-11-19T15:33:48;99729.84;;;12.77;78.42
32733;BME280;11867;51.198;11.966;2023-11-19T15:39:12;99749.84;;;12.41;80.20
32733;BME280;11867;51.198;11.966;2023-11-19T15:44:38;99751.09;;;12.57;79.16
32733;BME280;11867;51.198;11.966;2023-11-19T15:50:03;99743.13;;;12.47;79.44
32733;BME280;11867;51.198;11.966;2023-11-19T15:55:27;99736.88;;;12.32;79.88
32733;BME280;11867;51.198;11.966;2023-11-19T16:00:50;99742.28;;;12.60;79.11
32733;BME280;11867;51.198;11.966;2023-11-19T16:06:15;99739.00;;;12.72;78.38
32733;BME280;11867;51.198;11.966;2023-11-19T16:11:40;99752.47;;;12.68;78.20
32733;BME280;11867;51.198;11.966;2023-11-19T16:17:17;99747.81;;;12.91;76.76
32733;BME280;11867;51.198;11.966;2023-11-19T16:22:42;99761.13;;;12.48;79.01
32733;BME280;11867;51.198;11.966;2023-11-19T16:28:05;99766.78;;;12.65;78.04
32733;BME280;11867;51.198;11.966;2023-11-19T16:33:30;99774.53;;;12.36;78.62
32733;BME280;11867;51.198;11.966;2023-11-19T16:38:58;99782.72;;;12.36;78.65
32733;BME280;11867;51.198;11.966;2023-11-19T16:44:24;99783.88;;;12.35;79.21
32733;BME280;11867;51.198;11.966;2023-11-19T16:49:48;99788.19;;;12.36;79.14
32733;BME280;11867;51.198;11.966;2023-11-19T16:55:13;99792.78;;;12.40;79.36
32733;BME280;11867;51.198;11.966;2023-11-19T17:00:39;99784.38;;;12.09;80.86
32733;BME280;11867;51.198;11.966;2023-11-19T17:06:02;99794.50;;;12.22;80.61
32733;BME280;11867;51.198;11.966;2023-11-19T17:11:27;99794.81;;;12.21;80.90
32733;BME280;11867;51.198;11.966;2023-11-19T17:16:50;99790.38;;;11.97;82.31
32733;BME280;11867;51.198;11.966;2023-11-19T17:22:14;99789.84;;;12.37;81.75
32733;BME280;11867;51.198;11.966;2023-11-19T17:27:39;99779.81;;;11.90;83.90
32733;BME280;11867;51.198;11.966;2023-11-19T17:33:07;99786.31;;;12.08;82.94
32733;BME280;11867;51.198;11.966;2023-11-19T17:38:31;99784.19;;;11.91;83.75
32733;BME280;11867;51.198;11.966;2023-11-19T17:43:56;99774.94;;;11.87;83.30
32733;BME280;11867;51.198;11.966;2023-11-19T17:49:19;99772.94;;;12.07;81.85
32733;BME280;11867;51.198;11.966;2023-11-19T17:54:42;99767.25;;;12.17;81.20
32733;BME280;11867;51.198;11.966;2023-11-19T18:00:08;99777.16;;;11.85;81.93
32733;BME280;11867;51.198;11.966;2023-11-19T18:05:36;99779.72;;;11.96;81.86
32733;BME280;11867;51.198;11.966;2023-11-19T18:11:03;99781.75;;;11.90;82.08
32733;BME280;11867;51.198;11.966;2023-11-19T18:16:27;99789.75;;;12.00;82.16
32733;BME280;11867;51.198;11.966;2023-11-19T18:21:50;99789.28;;;11.65;83.38
32733;BME280;11867;51.198;11.966;2023-11-19T18:27:13;99788.13;;;12.13;82.11
32733;BME280;11867;51.198;11.966;2023-11-19T18:32:38;99805.44;;;12.22;81.76
32733;BME280;11867;51.198;11.966;2023-11-19T18:38:03;99800.88;;;12.04;83.09
32733;BME280;11867;51.198;11.966;2023-11-19T18:43:26;99803.19;;;11.97;83.24
32733;BME280;11867;51.198;11.966;2023-11-19T18:48:50;99804.19;;;11.87;83.88
32733;BME280;11867;51.198;11.966;2023-11-19T18:54:14;99805.13;;;12.10;83.02
32733;BME280;11867;51.198;11.966;2023-11-19T18:59:43;99809.97;;;12.13;82.68
32733;BME280;11867;51.198;11.966;2023-11-19T19:05:08;99798.38;;;12.07;83.00
32733;BME280;11867;51.198;11.966;2023-11-19T19:10:31;99802.19;;;12.06;83.13
32733;BME280;11867;51.198;11.966;2023-11-19T19:15:59;99792.97;;;12.02;83.79
32733;BME280;11867;51.198;11.966;2023-11-19T19:21:23;99796.81;;;11.87;85.08
32733;BME280;11867;51.198;11.966;2023-11-19T19:26:46;99788.59;;;11.87;86.51
32733;BME280;11867;51.198;11.966;2023-11-19T19:32:09;99791.03;;;11.75;86.86
32733;BME280;11867;51.198;11.966;2023-11-19T19:37:34;99799.41;;;11.65;87.89
32733;BME280;11867;51.198;11.966;2023-11-19T19:42:57;99779.44;;;11.50;89.40
32733;BME280;11867;51.198;11.966;2023-11-19T19:48:20;99774.94;;;11.60;89.05
32733;BME280;11867;51.198;11.966;2023-11-19T19:53:44;99791.28;;;11.46;90.36
32733;BME280;11867;51.198;11.966;2023-11-19T19:59:09;99790.75;;;11.90;87.50
32733;BME280;11867;51.198;11.966;2023-11-19T20:04:33;99795.63;;;11.94;88.02
32733;BME280;11867;51.198;11.966;2023-11-19T20:10:18;99807.50;;;11.70;88.55
32733;BME280;11867;51.198;11.966;2023-11-19T20:15:41;99795.41;;;12.04;86.70
32733;BME280;11867;51.198;11.966;2023-11-19T20:21:06;99801.09;;;11.94;86.48
32733;BME280;11867;51.198;11.966;2023-11-19T20:26:34;99803.91;;;11.88;87.68
32733;BME280;11867;51.198;11.966;2023-11-19T20:31:57;99801.19;;;12.02;85.49
32733;BME280;11867;51.198;11.966;2023-11-19T20:37:20;99805.38;;;11.67;87.44
32733;BME280;11867;51.198;11.966;2023-11-19T20:42:45;99807.50;;;11.70;88.53
32733;BME280;11867;51.198;11.966;2023-11-19T20:48:12;99801.13;;;11.61;89.90
32733;BME280;11867;51.198;11.966;2023-11-19T20:53:35;99793.06;;;11.83;88.27
32733;BME280;11867;51.198;11.966;2023-11-19T20:59:02;99791.13;;;11.84;88.21
32733;BME280;11867;51.198;11.966;2023-11-19T21:04:26;99787.38;;;11.66;90.32
32733;BME280;11867;51.198;11.966;2023-11-19T21:09:49;99780.13;;;12.03;88.49
32733;BME280;11867;51.198;11.966;2023-11-19T21:15:13;99784.06;;;12.24;87.73
32733;BME280;11867;51.198;11.966;2023-11-19T21:20:36;99780.03;;;12.22;88.01
32733;BME280;11867;51.198;11.966;2023-11-19T21:26:03;99775.38;;;12.22;85.97
32733;BME280;11867;51.198;11.966;2023-11-19T21:31:28;99774.28;;;12.09;85.79
32733;BME280;11867;51.198;11.966;2023-11-19T21:36:52;99775.78;;;12.02;86.13
32733;BME280;11867;51.198;11.966;2023-11-19T21:42:16;99771.34;;;12.06;84.92
32733;BME280;11867;51.198;11.966;2023-11-19T21:47:40;99760.19;;;11.75;85.36
32733;BME280;11867;51.198;11.966;2023-11-19T21:53:04;99766.38;;;11.94;84.89
32733;BME280;11867;51.198;11.966;2023-11-19T21:58:27;99766.22;;;11.71;85.68
32733;BME280;11867;51.198;11.966;2023-11-19T22:03:54;99784.13;;;11.64;86.11
32733;BME280;11867;51.198;11.966;2023-11-19T22:09:17;99787.88;;;11.68;86.18
32733;BME280;11867;51.198;11.966;2023-11-19T22:14:40;99782.81;;;11.47;88.90
32733;BME280;11867;51.198;11.966;2023-11-19T22:20:06;99786.41;;;11.43;90.46
32733;BME280;11867;51.198;11.966;2023-11-19T22:25:45;99786.22;;;11.39;92.04
32733;BME280;11867;51.198;11.966;2023-11-19T22:31:08;99781.50;;;11.59;92.65
32733;BME280;11867;51.198;11.966;2023-11-19T22:36:33;99769.63;;;11.36;94.98
32733;BME280;11867;51.198;11.966;2023-11-19T22:41:56;99755.28;;;11.44;94.93
32733;BME280;11867;51.198;11.966;2023-11-19T22:47:20;99758.63;;;11.55;94.78
32733;BME280;11867;51.198;11.966;2023-11-19T22:52:45;99759.13;;;11.57;95.35
32733;BME280;11867;51.198;11.966;2023-11-19T22:58:07;99768.50;;;11.37;97.74
32733;BME280;11867;51.198;11.966;2023-11-19T23:03:31;99761.50;;;11.17;98.20
32733;BME280;11867;51.198;11.966;2023-11-19T23:08:55;99757.09;;;11.48;97.75
32733;BME280;11867;51.198;11.966;2023-11-19T23:14:18;99749.03;;;11.10;98.89
32733;BME280;11867;51.198;11.966;2023-11-19T23:19:41;99745.41;;;10.63;100.00
32733;BME280;11867;51.198;11.966;2023-11-19T23:25:07;99739.88;;;10.68;100.00
32733;BME280;11867;51.198;11.966;2023-11-19T23:30:30;99726.03;;;10.84;100.00
32733;BME280;11867;51.198;11.966;2023-11-19T23:35:53;99730.69;;;10.97;99.08
32733;BME280;11867;51.198;11.966;2023-11-19T23:41:20;99724.72;;;11.28;97.89
32733;BME280;11867;51.198;11.966;2023-11-19T23:46:43;99731.25;;;11.13;97.90
32733;BME280;11867;51.198;11.966;2023-11-19T23:52:06;99724.97;;;11.45;94.49
32733;BME280;11867;51.198;11.966;2023-11-19T23:57:32;99715.63;;;11.19;95.31
